createdAt,value
2022-12-22T00:00:43.381Z,0.00
2022-12-22T00:05:07.145Z,-0.10
2022-12-22T00:09:29.709Z,0.10
2022-12-22T00:13:50.930Z,0.00
2022-12-22T00:18:13.163Z,0.20
2022-12-22T00:22:39.224Z,0.10
2022-12-22T00:27:02.479Z,0.20
2022-12-22T00:31:23.937Z,0.10
2022-12-22T00:35:45.224Z,0.20
2022-12-22T00:40:06.652Z,0.20
2022-12-22T00:44:27.630Z,0.30
2022-12-22T00:48:50.484Z,0.20
2022-12-22T00:53:11.059Z,0.00
2022-12-22T00:57:38.762Z,0.20
2022-12-22T01:02:26.786Z,0.20
2022-12-22T01:06:53.317Z,0.00
2022-12-22T01:11:14.171Z,0.00
2022-12-22T01:15:37.322Z,-0.10
2022-12-22T01:19:58.003Z,-0.20
2022-12-22T01:24:20.108Z,0.00
2022-12-22T01:28:41.165Z,0.00
2022-12-22T01:33:01.807Z,-0.20
2022-12-22T01:37:22.913Z,0.00
2022-12-22T01:41:46.097Z,0.00
2022-12-22T01:46:07.830Z,-0.10
2022-12-22T01:50:28.452Z,0.10
2022-12-22T01:54:49.390Z,0.10
2022-12-22T01:59:14.522Z,-0.20
2022-12-22T02:03:36.024Z,0.10
2022-12-22T02:08:16.099Z,0.00
2022-12-22T02:12:44.293Z,-0.10
2022-12-22T02:17:12.667Z,0.10
2022-12-22T02:21:39.747Z,0.00
2022-12-22T02:26:08.748Z,0.10
2022-12-22T02:30:32.128Z,0.00
2022-12-22T02:34:53.026Z,-0.50
2022-12-22T02:39:26.371Z,-0.70
2022-12-22T02:44:03.734Z,-0.80
2022-12-22T02:48:26.689Z,-1.10
2022-12-22T02:52:54.007Z,-1.00
2022-12-22T02:57:15.314Z,-0.90
2022-12-22T03:01:36.389Z,-1.40
2022-12-22T03:05:57.552Z,-1.20
2022-12-22T03:10:19.866Z,-1.30
2022-12-22T03:14:40.912Z,-1.40
2022-12-22T03:19:02.068Z,-1.50
2022-12-22T03:23:24.626Z,-1.50
2022-12-22T03:27:29.276Z,-1.50
2022-12-22T03:31:32.709Z,-1.50
2022-12-22T03:35:35.994Z,-1.60
2022-12-22T03:39:39.684Z,-1.40
2022-12-22T03:44:02.031Z,-1.30
2022-12-22T03:48:05.762Z,-1.30
2022-12-22T03:52:09.041Z,-1.20
2022-12-22T03:56:12.464Z,-1.20
2022-12-22T04:00:18.256Z,-1.20
2022-12-22T04:04:23.797Z,-1.10
2022-12-22T04:08:27.082Z,-1.00
2022-12-22T04:12:47.713Z,-0.80
2022-12-22T04:16:52.736Z,-0.90
2022-12-22T04:21:29.691Z,-0.80
2022-12-22T04:25:33.078Z,-0.90
2022-12-22T04:29:36.290Z,-1.00
2022-12-22T04:33:41.090Z,-0.90
2022-12-22T04:37:44.411Z,-0.70
2022-12-22T04:41:47.728Z,-1.00
2022-12-22T04:45:54.573Z,-1.00
2022-12-22T04:49:59.955Z,-1.10
2022-12-22T04:54:03.232Z,-1.10
2022-12-22T04:58:06.730Z,-1.10
2022-12-22T05:02:10.917Z,-1.20
2022-12-22T05:06:16.018Z,-1.20
2022-12-22T05:10:19.354Z,-1.40
2022-12-22T05:14:22.716Z,-1.50
2022-12-22T05:18:25.944Z,-1.40
2022-12-22T05:22:30.526Z,-1.60
2022-12-22T05:26:33.798Z,-1.40
2022-12-22T05:30:37.229Z,-1.30
2022-12-22T05:34:40.599Z,-1.60
2022-12-22T05:38:45.752Z,-1.50
2022-12-22T05:42:48.983Z,-1.80
2022-12-22T05:46:53.247Z,-2.00
2022-12-22T05:50:56.667Z,-1.90
2022-12-22T05:55:01.389Z,-1.70
2022-12-22T05:59:07.645Z,-1.70
2022-12-22T06:03:11.226Z,-1.90
2022-12-22T06:07:14.580Z,-1.90
2022-12-22T06:11:19.963Z,-2.00
2022-12-22T06:15:23.204Z,-2.00
2022-12-22T06:19:28.078Z,-2.20
2022-12-22T06:23:32.345Z,-2.10
2022-12-22T06:27:37.228Z,-2.00
2022-12-22T06:31:41.003Z,-1.90
2022-12-22T06:35:44.589Z,-2.10
2022-12-22T06:39:48.403Z,-1.80
2022-12-22T06:43:54.316Z,-1.80
2022-12-22T06:47:57.689Z,-2.00
2022-12-22T06:52:01.252Z,-2.00
2022-12-22T06:56:04.532Z,-2.40
2022-12-22T07:00:11.097Z,-2.20
2022-12-22T07:04:19.864Z,-2.20
2022-12-22T07:08:23.378Z,-2.10
2022-12-22T07:12:26.717Z,-2.00
2022-12-22T07:16:31.338Z,-2.20
2022-12-22T07:20:35.128Z,-2.20
2022-12-22T07:24:38.414Z,-2.10
2022-12-22T07:28:43.314Z,-2.00
2022-12-22T07:32:48.015Z,-2.00
2022-12-22T07:36:52.456Z,-2.10
2022-12-22T07:41:04.487Z,-2.10
2022-12-22T07:45:09.098Z,-1.90
2022-12-22T07:49:32.132Z,-1.80
2022-12-22T07:53:36.052Z,-1.70
2022-12-22T07:57:39.640Z,-1.60
2022-12-22T08:01:43.564Z,-1.50
2022-12-22T08:05:48.550Z,-1.40
2022-12-22T08:10:01.074Z,-1.40
2022-12-22T08:14:04.441Z,-1.10
2022-12-22T08:18:07.896Z,-1.00
2022-12-22T08:22:12.964Z,-0.90
2022-12-22T08:26:19.471Z,-0.50
2022-12-22T08:30:25.100Z,-0.50
2022-12-22T08:34:53.229Z,-0.30
2022-12-22T08:39:06.324Z,-0.20
2022-12-22T08:43:11.453Z,-0.10
2022-12-22T08:47:18.686Z,0.10
2022-12-22T08:51:22.869Z,0.10
2022-12-22T08:55:32.397Z,-0.10
2022-12-22T08:59:36.270Z,-0.30
2022-12-22T09:03:40.098Z,-0.30
2022-12-22T09:07:43.729Z,-0.10
2022-12-22T09:11:50.004Z,-0.10
2022-12-22T09:15:54.481Z,-0.30
2022-12-22T09:20:17.972Z,-0.10
2022-12-22T09:24:22.066Z,-0.10
2022-12-22T09:28:26.936Z,0.20
2022-12-22T09:32:32.516Z,0.60
2022-12-22T09:36:36.092Z,0.90
2022-12-22T09:40:50.609Z,1.00
2022-12-22T09:44:56.918Z,1.30
2022-12-22T09:49:13.911Z,1.40
2022-12-22T09:53:26.743Z,1.40
2022-12-22T09:57:32.540Z,1.50
2022-12-22T10:02:06.482Z,1.70
2022-12-22T10:07:26.640Z,2.10
2022-12-22T10:11:28.133Z,3.50
2022-12-22T10:15:49.873Z,5.10
2022-12-22T10:20:08.594Z,5.30
2022-12-22T10:24:20.519Z,5.30
2022-12-22T10:28:30.608Z,5.30
2022-12-22T10:32:49.591Z,5.40
2022-12-22T10:36:59.392Z,5.90
2022-12-22T10:41:06.372Z,6.50
2022-12-22T10:45:19.371Z,6.70
2022-12-22T10:49:25.547Z,7.50
2022-12-22T10:53:50.670Z,8.00
2022-12-22T10:58:07.453Z,8.10
2022-12-22T11:02:31.265Z,7.80
2022-12-22T11:06:35.022Z,7.30
2022-12-22T11:10:45.178Z,7.10
2022-12-22T11:14:57.885Z,6.90
2022-12-22T11:19:13.293Z,7.00
2022-12-22T11:23:24.124Z,7.80
2022-12-22T11:27:45.741Z,9.00
2022-12-22T11:32:01.678Z,9.40
2022-12-22T11:36:07.338Z,9.20
2022-12-22T11:40:22.670Z,8.90
2022-12-22T11:44:41.229Z,8.70
2022-12-22T11:49:14.798Z,8.50
2022-12-22T11:53:39.806Z,8.10
2022-12-22T11:57:56.534Z,7.80
2022-12-22T12:02:21.043Z,7.40
2022-12-22T12:06:57.509Z,7.00
2022-12-22T12:11:18.361Z,6.60
2022-12-22T12:15:32.736Z,6.40
2022-12-22T12:19:53.882Z,6.60
2022-12-22T12:24:36.957Z,7.30
2022-12-22T12:28:54.954Z,7.80
2022-12-22T12:33:03.028Z,7.90
2022-12-22T12:37:20.244Z,7.50
2022-12-22T12:41:35.284Z,7.70
2022-12-22T12:45:41.342Z,7.80
2022-12-22T12:50:05.841Z,7.80
2022-12-22T12:54:40.023Z,7.30
2022-12-22T12:59:05.285Z,7.00
2022-12-22T13:03:25.289Z,6.60
2022-12-22T13:08:14.496Z,6.30
2022-12-22T13:12:41.204Z,6.10
2022-12-22T13:16:47.266Z,5.80
2022-12-22T13:21:12.344Z,5.50
2022-12-22T13:25:20.916Z,5.30
2022-12-22T13:29:46.029Z,5.30
2022-12-22T13:33:59.979Z,5.20
2022-12-22T13:38:03.938Z,5.00
2022-12-22T13:42:09.007Z,5.00
2022-12-22T13:46:13.974Z,4.90
2022-12-22T13:50:24.440Z,4.90
2022-12-22T13:54:33.266Z,4.90
2022-12-22T13:58:40.337Z,4.80
2022-12-22T14:02:46.482Z,4.70
2022-12-22T14:06:50.000Z,4.60
2022-12-22T14:10:55.350Z,4.60
2022-12-22T14:15:01.356Z,4.60
2022-12-22T14:19:06.799Z,4.60
2022-12-22T14:23:21.021Z,4.50
2022-12-22T14:27:34.348Z,4.30
2022-12-22T14:31:53.061Z,4.20
2022-12-22T14:36:16.407Z,4.10
2022-12-22T14:40:31.573Z,3.90
2022-12-22T14:44:44.652Z,3.90
2022-12-22T14:48:48.820Z,3.90
2022-12-22T14:52:57.211Z,3.90
2022-12-22T14:57:03.728Z,3.90
2022-12-22T15:01:17.763Z,4.00
2022-12-22T15:05:28.560Z,4.00
2022-12-22T15:10:13.272Z,4.10
2022-12-22T15:13:57.624Z,4.00
2022-12-22T15:18:04.125Z,3.90
2022-12-22T15:22:09.158Z,3.70
2022-12-22T15:26:13.816Z,3.60
2022-12-22T15:30:19.306Z,3.40
2022-12-22T15:34:26.000Z,3.10
2022-12-22T15:38:35.068Z,3.10
2022-12-22T15:42:43.242Z,2.70
2022-12-22T15:46:52.753Z,2.60
2022-12-22T15:50:57.260Z,2.40
2022-12-22T15:55:01.889Z,2.20
2022-12-22T15:59:06.943Z,2.20
2022-12-22T16:03:13.421Z,1.90
2022-12-22T16:07:17.167Z,1.60
2022-12-22T16:11:20.782Z,1.50
2022-12-22T16:15:26.059Z,1.50
2022-12-22T16:19:29.690Z,1.50
2022-12-22T16:23:33.482Z,1.30
2022-12-22T17:02:35.589Z,1.10
2022-12-22T17:06:40.100Z,1.10
2022-12-22T17:10:43.786Z,1.20
2022-12-22T17:14:48.027Z,1.10
2022-12-22T17:18:52.878Z,1.00
2022-12-22T17:22:58.754Z,0.70
2022-12-22T17:27:06.849Z,1.10
2022-12-22T17:31:16.335Z,1.10
2022-12-22T17:35:24.840Z,0.80
2022-12-22T17:39:28.875Z,0.70
2022-12-22T17:43:32.512Z,0.60
2022-12-22T17:47:42.355Z,0.70
2022-12-22T17:51:48.374Z,0.70
2022-12-22T17:56:09.052Z,0.70
2022-12-22T18:00:19.405Z,0.30
2022-12-22T18:04:22.822Z,0.50
2022-12-22T18:08:27.852Z,0.40
2022-12-22T18:12:31.221Z,0.40
2022-12-22T18:16:36.913Z,0.20
2022-12-22T18:20:40.539Z,0.30
2022-12-22T18:24:45.756Z,0.40
2022-12-22T18:28:50.517Z,0.50
2022-12-22T18:32:55.309Z,0.40
2022-12-22T18:36:59.481Z,0.70
2022-12-22T18:41:04.356Z,1.00
2022-12-22T18:45:11.211Z,0.90
2022-12-22T18:49:15.338Z,0.70
2022-12-22T18:53:31.273Z,1.00
2022-12-22T18:57:36.021Z,0.90
2022-12-22T19:01:39.827Z,0.80
2022-12-22T19:05:44.894Z,0.90
2022-12-22T19:09:49.887Z,0.80
2022-12-22T19:14:28.529Z,0.80
2022-12-22T19:18:34.120Z,0.80
2022-12-22T19:22:40.838Z,0.70
2022-12-22T19:26:45.884Z,0.80
2022-12-22T19:31:00.785Z,0.70
2022-12-22T19:35:08.453Z,0.60
2022-12-22T19:39:29.802Z,0.40
2022-12-22T19:43:35.195Z,0.30
2022-12-22T19:47:39.807Z,0.20
2022-12-22T19:51:44.722Z,0.30
2022-12-22T19:55:52.579Z,0.40
2022-12-22T19:59:56.669Z,0.20
2022-12-22T20:04:02.112Z,-0.10
2022-12-22T20:08:09.394Z,0.00
2022-12-22T20:12:28.433Z,-0.10
2022-12-22T20:16:36.271Z,-0.40
2022-12-22T20:20:43.119Z,-0.50
2022-12-22T20:24:53.841Z,-0.20
2022-12-22T20:29:00.994Z,-0.30
2022-12-22T20:33:09.199Z,-0.40
2022-12-22T20:37:23.666Z,-0.40
2022-12-22T20:41:35.550Z,-0.40
2022-12-22T20:45:42.231Z,-0.40
2022-12-22T20:49:46.909Z,-0.40
2022-12-22T20:53:50.726Z,-0.20
2022-12-22T20:57:56.795Z,-0.30
2022-12-22T21:02:01.137Z,-0.50
2022-12-22T21:06:23.535Z,-0.20
2022-12-22T21:10:27.519Z,-0.10
2022-12-22T21:14:35.789Z,-0.20
2022-12-22T21:18:40.641Z,0.10
2022-12-22T21:22:45.164Z,0.30
2022-12-22T21:26:53.716Z,0.50
2022-12-22T21:30:57.374Z,0.40
2022-12-22T21:35:07.971Z,0.50
2022-12-22T21:39:20.315Z,0.60
2022-12-22T21:43:23.940Z,0.60
2022-12-22T21:47:29.427Z,0.70
2022-12-22T21:51:34.378Z,0.70
2022-12-22T21:55:40.681Z,0.60
2022-12-22T21:59:44.316Z,0.70
2022-12-22T22:03:47.662Z,0.60
2022-12-22T22:07:54.507Z,0.80
2022-12-22T22:12:15.339Z,0.70
2022-12-22T22:16:19.262Z,0.70
2022-12-22T22:20:25.870Z,1.00
2022-12-22T22:24:31.931Z,1.00
2022-12-22T22:28:36.912Z,0.90
2022-12-22T22:37:18.258Z,0.80
2022-12-22T22:41:23.484Z,0.60
2022-12-22T22:45:28.213Z,0.70
2022-12-22T22:49:32.132Z,0.60
2022-12-22T22:53:36.728Z,0.50
2022-12-22T22:57:42.633Z,0.30
2022-12-22T23:01:46.364Z,0.30
2022-12-22T23:05:49.764Z,0.10
2022-12-22T23:09:54.214Z,0.30
2022-12-22T23:14:00.006Z,0.10
2022-12-22T23:18:03.439Z,0.10
2022-12-22T23:22:07.017Z,-0.10
2022-12-22T23:26:11.167Z,-0.20
2022-12-22T23:30:16.758Z,-0.10
2022-12-22T23:34:20.223Z,0.00
2022-12-22T23:38:23.847Z,0.10
2022-12-22T23:42:33.410Z,-0.10
2022-12-22T23:46:38.233Z,0.00
2022-12-22T23:50:47.736Z,-0.10
2022-12-22T23:54:51.201Z,-0.10
2022-12-22T23:58:55.359Z,-0.20
